Time;durP1;ratioP1;P1;durP2;ratioP2;P2;SDS_P1;SDS_P2;PMS_P1;PMS_P2;Temp;Humidity;BMP_temperature;BMP_pressure;BME280_temperature;BME280_humidity;BME280_pressure;Samples;Min_cycle;Max_cycle;Signal;HPM_P1;HPM_P2
2023/01/31 00:01:11;;;;;;;;;18.00;12.00;;;;;3.73;69.06;100235.34;5087805;27;45557;-75
2023/01/31 00:03:38;;;;;;;;;12.00;12.00;;;;;3.69;69.02;100233.56;5063523;28;45542;-75
2023/01/31 00:06:20;;;;;;;;;25.67;21.00;;;;;3.67;67.71;100230.09;5074769;28;45444;-75
2023/01/31 00:08:48;;;;;;;;;33.67;29.33;;;;;3.63;66.80;100230.06;5073410;28;45575;-75
2023/01/31 00:11:15;;;;;;;;;12.00;11.00;;;;;3.61;68.78;100226.59;5089155;27;48136;-75
2023/01/31 00:13:41;;;;;;;;;27.00;20.67;;;;;3.62;67.95;100217.91;5076393;27;45436;-75
2023/01/31 00:16:07;;;;;;;;;30.00;26.67;;;;;3.62;67.65;100210.94;5072774;28;45437;-75
2023/01/31 00:18:33;;;;;;;;;22.33;21.67;;;;;3.61;68.54;100210.94;5074935;28;45549;-73
2023/01/31 00:21:07;;;;;;;;;11.00;10.00;;;;;3.62;69.28;100210.06;5074449;28;45479;-74
2023/01/31 00:23:33;;;;;;;;;20.67;19.33;;;;;3.65;69.16;100216.19;5076533;27;45504;-75
2023/01/31 00:26:24;;;;;;;;;24.33;16.33;;;;;3.66;68.84;100206.63;5091558;27;45453;-75
2023/01/31 00:28:53;;;;;;;;;14.67;14.67;;;;;3.69;68.60;100207.50;5071670;28;45411;-75
2023/01/31 00:31:20;;;;;;;;;29.67;24.67;;;;;3.69;67.38;100206.63;5072778;28;46287;-74
2023/01/31 00:33:47;;;;;;;;;30.67;22.33;;;;;3.63;66.36;100207.47;5074601;27;45556;-74
2023/01/31 00:36:16;;;;;;;;;37.67;30.00;;;;;3.58;66.33;100203.09;5074798;27;45351;-74
2023/01/31 00:38:42;;;;;;;;;43.00;30.67;;;;;3.53;65.86;100196.97;5075923;28;45400;-73
2023/01/31 00:41:08;;;;;;;;;31.67;30.00;;;;;3.50;65.54;100205.69;5075784;27;45483;-73
2023/01/31 00:43:33;;;;;;;;;36.33;31.00;;;;;3.45;65.38;100209.97;5076067;28;45554;-75
2023/01/31 00:45:59;;;;;;;;;34.00;29.33;;;;;3.41;65.47;100214.28;5072131;27;45542;-75
2023/01/31 00:48:25;;;;;;;;;24.67;21.67;;;;;3.38;67.82;100206.44;5089650;27;45473;-75
2023/01/31 00:50:50;;;;;;;;;29.33;28.33;;;;;3.37;66.77;100212.53;5056152;28;45491;-75
2023/01/31 00:53:22;;;;;;;;;32.67;29.00;;;;;3.34;66.32;100204.72;5054414;28;45569;-75
2023/01/31 00:55:47;;;;;;;;;28.00;22.67;;;;;3.31;65.55;100198.59;5064561;28;45552;-75
2023/01/31 00:58:12;;;;;;;;;39.33;30.33;;;;;3.27;65.46;100200.31;5059484;27;45410;-75
2023/01/31 01:00:38;;;;;;;;;39.33;33.33;;;;;3.27;65.57;100194.22;5055710;28;45602;-75
2023/01/31 01:03:03;;;;;;;;;27.00;22.00;;;;;3.25;65.41;100202.03;5072143;28;45398;-75
2023/01/31 01:05:29;;;;;;;;;37.00;30.67;;;;;3.24;65.20;100204.63;5065549;28;45444;-75
2023/01/31 01:07:54;;;;;;;;;36.33;32.33;;;;;3.23;65.03;100210.69;5074154;28;45434;-75
2023/01/31 01:10:20;;;;;;;;;42.33;37.33;;;;;3.22;64.79;100211.56;5074675;28;45805;-75
2023/01/31 01:12:45;;;;;;;;;45.67;33.33;;;;;3.22;65.10;100220.25;5058818;28;45625;-75
2023/01/31 01:15:10;;;;;;;;;41.67;37.33;;;;;3.22;64.94;100204.59;5056158;28;45388;-75
2023/01/31 01:17:36;;;;;;;;;47.67;37.67;;;;;3.21;64.45;100200.25;5054315;28;45587;-75
2023/01/31 01:20:02;;;;;;;;;49.67;38.67;;;;;3.20;64.90;100202.84;5064627;28;46593;-75
2023/01/31 01:22:29;;;;;;;;;42.33;35.00;;;;;3.17;64.83;100203.72;5075642;28;45651;-75
2023/01/31 01:24:54;;;;;;;;;43.00;38.67;;;;;3.16;64.98;100212.41;5075930;28;45435;-75
2023/01/31 01:27:20;;;;;;;;;42.33;34.67;;;;;3.15;64.57;100223.69;5073836;28;45544;-75
2023/01/31 01:29:45;;;;;;;;;42.33;37.00;;;;;3.14;65.02;100219.34;5075659;27;45451;-74
2023/01/31 01:32:11;;;;;;;;;53.33;38.00;;;;;3.12;64.67;100218.44;5075334;28;45391;-74
2023/01/31 01:34:36;;;;;;;;;34.67;33.00;;;;;3.12;64.94;100236.69;5076199;28;45360;-74
2023/01/31 01:37:10;;;;;;;;;39.33;34.67;;;;;3.08;64.90;100233.19;5075785;27;45520;-75
2023/01/31 01:39:37;;;;;;;;;37.67;29.00;;;;;3.05;64.74;100227.94;5076095;28;45678;-75
2023/01/31 01:42:03;;;;;;;;;43.33;34.33;;;;;3.02;65.07;100225.28;5071968;28;45447;-76
2023/01/31 01:44:47;;;;;;;;;41.67;35.67;;;;;3.01;64.94;100234.00;5055768;28;45408;-75
2023/01/31 01:47:22;;;;;;;;;55.00;38.33;;;;;2.98;64.93;100233.09;5053842;28;45623;-75
2023/01/31 01:49:55;;;;;;;;;41.33;36.67;;;;;2.96;65.21;100242.63;5055908;28;46302;-75
2023/01/31 01:52:24;;;;;;;;;47.00;38.33;;;;;2.92;65.19;100243.47;5073276;27;45397;-75
2023/01/31 01:54:57;;;;;;;;;48.00;38.00;;;;;2.91;65.14;100245.19;5074533;27;45471;-75
2023/01/31 01:57:34;;;;;;;;;46.00;38.67;;;;;2.87;65.35;100246.00;5091046;27;45463;-75
2023/01/31 02:00:14;;;;;;;;;29.00;27.33;;;;;2.82;65.50;100247.72;5074839;27;46271;-75
2023/01/31 02:02:41;;;;;;;;;48.00;37.33;;;;;2.78;65.30;100251.16;5074681;28;45399;-75
2023/01/31 02:05:11;;;;;;;;;43.33;31.00;;;;;2.76;65.45;100252.88;5075578;28;45321;-75
2023/01/31 02:07:37;;;;;;;;;47.00;36.67;;;;;2.75;65.37;100256.31;5075055;27;45596;-75
2023/01/31 02:10:14;;;;;;;;;51.33;34.33;;;;;2.73;65.29;100256.31;5074992;28;46280;-75
2023/01/31 02:12:39;;;;;;;;;35.00;34.67;;;;;2.74;65.74;100259.78;5075121;28;45379;-75
2023/01/31 02:15:06;;;;;;;;;41.33;36.67;;;;;2.73;65.53;100255.44;5066680;27;45381;-75
2023/01/31 02:17:31;;;;;;;;;38.00;30.00;;;;;2.71;65.55;100264.94;5072648;28;45460;-75
2023/01/31 02:20:38;;;;;;;;;53.00;37.33;;;;;2.68;65.48;100271.00;5066757;28;46197;-75
2023/01/31 02:23:34;;;;;;;;;43.33;35.33;;;;;2.67;65.55;100269.28;5054983;28;45515;-75
2023/01/31 02:26:15;;;;;;;;;43.67;38.00;;;;;2.63;65.51;100264.91;5074895;28;45489;-75
2023/01/31 02:28:57;;;;;;;;;54.00;42.67;;;;;2.62;65.63;100265.75;5074243;27;45336;-75
2023/01/31 02:31:48;;;;;;;;;47.67;38.33;;;;;2.59;65.55;100273.53;5073446;28;48438;-75
2023/01/31 02:34:32;;;;;;;;;57.67;41.33;;;;;2.57;65.44;100283.03;5036125;28;45527;-75
2023/01/31 02:37:00;;;;;;;;;50.00;39.00;;;;;2.56;65.43;100277.81;5060475;28;45528;-75
2023/01/31 02:39:52;;;;;;;;;42.00;38.33;;;;;2.55;65.52;100284.75;5053546;28;45457;-75
2023/01/31 02:42:31;;;;;;;;;49.33;42.67;;;;;2.55;65.39;100283.88;5051210;28;46418;-75
2023/01/31 02:45:12;;;;;;;;;45.67;38.00;;;;;2.56;65.51;100288.22;5067123;28;45533;-75
2023/01/31 02:47:55;;;;;;;;;51.33;41.00;;;;;2.56;65.51;100283.03;5069163;28;45597;-76
2023/01/31 02:50:37;;;;;;;;;48.67;42.67;;;;;2.56;65.45;100286.50;5071202;28;45470;-75
2023/01/31 02:53:17;;;;;;;;;44.00;39.33;;;;;2.56;65.18;100286.50;5065641;27;45437;-75
2023/01/31 02:58:37;;;;;;;;;49.00;40.33;;;;;2.58;64.96;100297.81;5053643;28;45386;-75
2023/01/31 03:01:04;;;;;;;;;18.67;7.67;;;;;2.57;65.25;100301.25;5062174;28;45521;-75
2023/01/31 03:03:34;;;;;;;;;50.67;44.67;;;;;2.58;65.34;100307.34;5067383;27;45500;-75
2023/01/31 03:06:21;;;;;;;;;53.67;42.00;;;;;2.58;65.31;100304.75;5056553;28;45318;-75
2023/01/31 03:08:51;;;;;;;;;57.67;46.33;;;;;2.58;65.31;100312.56;5082944;27;45500;-75
2023/01/31 03:11:16;;;;;;;;;56.33;43.00;;;;;2.56;65.05;100317.72;5070727;27;45586;-76
2023/01/31 03:14:17;;;;;;;;;50.67;42.33;;;;;2.55;65.12;100321.19;5067338;28;47634;-75
2023/01/31 03:17:33;;;;;;;;;44.33;39.67;;;;;2.53;65.32;100319.41;5065470;28;45549;-75
2023/01/31 03:20:19;;;;;;;;;57.33;42.33;;;;;2.55;65.34;100335.94;5059184;27;45527;-75
2023/01/31 03:23:07;;;;;;;;;54.33;42.00;;;;;2.54;65.28;100335.06;5069597;28;45385;-75
2023/01/31 03:25:34;;;;;;;;;48.33;42.00;;;;;2.52;65.55;100335.88;5068708;28;47440;-75
2023/01/31 03:28:05;;;;;;;;;58.00;43.67;;;;;2.50;65.41;100337.63;5068999;28;45484;-75
2023/01/31 03:30:40;;;;;;;;;58.33;41.33;;;;;2.49;65.50;100341.97;5071556;28;45514;-75
2023/01/31 03:33:28;;;;;;;;;49.00;40.33;;;;;2.48;65.32;100345.41;5072302;28;45529;-75
2023/01/31 03:36:46;;;;;;;;;45.33;40.33;;;;;2.47;65.62;100342.78;5070033;28;46720;-75
2023/01/31 03:39:40;;;;;;;;;19.33;13.67;;;;;2.44;65.75;100352.31;5023249;28;45529;-75
2023/01/31 03:42:09;;;;;;;;;57.00;41.33;;;;;2.42;65.86;100348.81;5066357;28;45513;-75
2023/01/31 03:45:02;;;;;;;;;44.33;37.33;;;;;2.41;65.78;100348.78;5071232;28;45527;-75
2023/01/31 03:47:37;;;;;;;;;50.67;43.67;;;;;2.41;65.82;100343.59;5065151;28;46493;-75
2023/01/31 03:50:12;;;;;;;;;60.00;44.33;;;;;2.41;65.79;100351.38;5087049;27;45528;-75
2023/01/31 03:52:59;;;;;;;;;48.33;41.67;;;;;2.41;65.85;100354.00;5071935;28;45475;-75
2023/01/31 03:55:53;;;;;;;;;49.33;43.00;;;;;2.43;65.66;100349.69;5071030;28;45533;-75
2023/01/31 03:58:27;;;;;;;;;60.33;43.33;;;;;2.43;65.90;100355.75;5083164;27;47747;-75
2023/01/31 04:00:56;;;;;;;;;49.00;42.33;;;;;2.43;65.67;100358.38;5069772;28;45523;-75
2023/01/31 04:03:29;;;;;;;;;59.00;43.33;;;;;2.43;65.88;100362.69;5069917;27;45488;-75
2023/01/31 04:05:54;;;;;;;;;57.67;42.00;;;;;2.42;65.81;100361.81;5068321;28;45460;-75
2023/01/31 04:08:20;;;;;;;;;48.67;41.67;;;;;2.41;65.81;100365.28;5071463;28;46590;-75
2023/01/31 04:10:45;;;;;;;;;50.67;42.67;;;;;2.40;65.78;100362.66;5071595;28;45399;-75
2023/01/31 04:13:10;;;;;;;;;49.67;41.00;;;;;2.38;65.55;100367.84;5072896;27;45879;-75
2023/01/31 04:15:36;;;;;;;;;46.00;40.33;;;;;2.38;65.99;100370.44;5072427;28;45566;-75
2023/01/31 04:18:01;;;;;;;;;59.00;43.00;;;;;2.38;65.60;100373.03;5061584;27;46130;-75
2023/01/31 04:20:27;;;;;;;;;57.00;44.33;;;;;2.36;65.73;100374.75;5069231;28;45544;-75
2023/01/31 04:22:52;;;;;;;;;62.33;42.67;;;;;2.33;65.71;100371.25;5064726;28;45661;-75
2023/01/31 04:25:18;;;;;;;;;51.33;40.00;;;;;2.31;65.56;100379.03;5064016;28;45372;-75
2023/01/31 04:27:43;;;;;;;;;60.67;43.33;;;;;2.30;65.73;100390.28;5069859;28;47483;-75
2023/01/31 04:30:09;;;;;;;;;55.33;42.00;;;;;2.26;65.98;100388.50;5072586;28;45391;-75
2023/01/31 04:32:35;;;;;;;;;57.67;42.67;;;;;2.23;66.03;100384.97;5071863;28;45474;-75
2023/01/31 04:35:00;;;;;;;;;59.33;43.33;;;;;2.20;66.03;100393.59;5071946;28;45441;-75
2023/01/31 04:37:25;;;;;;;;;46.00;40.67;;;;;2.20;65.97;100404.00;5087705;27;47579;-75
2023/01/31 04:39:51;;;;;;;;;53.67;42.33;;;;;2.20;65.97;100401.41;5072623;28;45385;-75
2023/01/31 04:42:16;;;;;;;;;50.67;43.33;;;;;2.19;65.88;100402.25;5071253;28;45330;-76
2023/01/31 04:44:42;;;;;;;;;63.00;44.00;;;;;2.17;66.22;100403.13;5088579;27;45526;-75
2023/01/31 04:47:07;;;;;;;;;57.00;46.33;;;;;2.16;66.06;100404.84;5058344;27;46560;-75
2023/01/31 04:49:32;;;;;;;;;55.00;43.00;;;;;2.14;66.12;100406.53;5061856;27;45396;-75
2023/01/31 04:51:58;;;;;;;;;63.00;46.33;;;;;2.15;66.04;100400.50;5053357;28;45908;-75
2023/01/31 04:54:23;;;;;;;;;47.67;41.00;;;;;2.15;66.22;100410.03;5054298;28;45484;-75
2023/01/31 04:56:48;;;;;;;;;54.67;43.33;;;;;2.16;66.38;100404.84;5073395;28;46165;-74
2023/01/31 04:59:14;;;;;;;;;51.67;40.33;;;;;2.18;66.27;100404.88;5074269;28;45401;-74
2023/01/31 05:01:40;;;;;;;;;44.33;36.00;;;;;2.17;66.30;100411.78;5073687;27;45548;-74
2023/01/31 05:04:06;;;;;;;;;54.00;42.33;;;;;2.19;66.35;100411.78;5074927;28;45550;-74
2023/01/31 05:06:32;;;;;;;;;58.00;45.67;;;;;2.18;65.98;100417.88;5072483;28;46654;-75
2023/01/31 05:09:00;;;;;;;;;49.00;39.33;;;;;2.19;66.32;100419.59;5064913;28;45484;-75
2023/01/31 05:11:25;;;;;;;;;59.67;42.67;;;;;2.19;66.01;100419.59;5070321;28;45546;-74
2023/01/31 05:13:51;;;;;;;;;56.67;42.67;;;;;2.19;66.14;100415.25;5073638;28;45451;-75
2023/01/31 05:16:16;;;;;;;;;55.00;42.33;;;;;2.18;66.09;100410.91;5071391;28;46796;-74
2023/01/31 05:18:42;;;;;;;;;50.33;42.67;;;;;2.17;66.24;100414.41;5075049;27;45361;-75
2023/01/31 05:21:07;;;;;;;;;60.33;44.00;;;;;2.16;66.24;100417.84;5075864;28;45431;-75
2023/01/31 05:23:33;;;;;;;;;52.00;42.00;;;;;2.16;66.00;100422.19;5075718;28;45492;-75
2023/01/31 05:25:59;;;;;;;;;64.33;47.00;;;;;2.13;66.10;100423.00;5056890;28;45543;-74
2023/01/31 05:28:25;;;;;;;;;51.00;44.00;;;;;2.12;66.47;100421.25;5067086;28;45487;-75
2023/01/31 05:30:59;;;;;;;;;55.33;40.33;;;;;2.12;66.25;100420.38;5073192;28;45402;-74
2023/01/31 05:33:26;;;;;;;;;58.67;45.33;;;;;2.10;66.31;100430.75;5062389;27;45386;-75
2023/01/31 05:35:52;;;;;;;;;59.67;41.33;;;;;2.07;66.36;100435.91;5067264;28;47455;-74
2023/01/31 05:38:17;;;;;;;;;49.67;43.00;;;;;2.06;66.48;100432.44;5054654;28;45478;-74
2023/01/31 05:40:43;;;;;;;;;50.00;40.67;;;;;2.06;66.50;100434.16;5054550;28;45532;-74
2023/01/31 05:43:08;;;;;;;;;59.67;42.67;;;;;2.05;66.51;100435.00;5074889;28;45360;-75
2023/01/31 05:45:33;;;;;;;;;47.67;42.33;;;;;2.05;66.68;100443.69;5074747;28;46437;-75
2023/01/31 05:47:59;;;;;;;;;55.00;43.33;;;;;2.04;66.46;100439.31;5074611;28;45453;-75
2023/01/31 05:50:25;;;;;;;;;61.67;45.33;;;;;2.03;66.42;100442.78;5074482;28;45465;-75
2023/01/31 05:52:56;;;;;;;;;59.67;45.67;;;;;2.04;66.42;100447.13;5090563;27;45547;-75
2023/01/31 05:55:21;;;;;;;;;39.33;38.00;;;;;2.02;66.42;100456.63;5089982;27;47793;-75
2023/01/31 05:57:47;;;;;;;;;55.33;42.00;;;;;2.01;66.52;100462.69;5074465;27;45454;-75
2023/01/31 06:00:13;;;;;;;;;51.33;42.00;;;;;2.00;66.61;100463.56;5072474;28;45562;-75
2023/01/31 06:02:40;;;;;;;;;66.67;42.67;;;;;1.97;66.70;100466.09;5071735;28;45594;-75
2023/01/31 06:05:06;;;;;;;;;55.33;48.67;;;;;1.96;66.57;100477.38;5074008;28;47177;-75
2023/01/31 06:07:32;;;;;;;;;53.33;43.33;;;;;1.94;66.67;100472.97;5081174;27;45765;-75
2023/01/31 06:09:57;;;;;;;;;57.33;46.67;;;;;1.91;66.77;100472.94;5073912;27;46003;-74
2023/01/31 06:12:22;;;;;;;;;54.00;43.00;;;;;1.88;66.89;100465.06;5074380;28;45322;-75
2023/01/31 06:14:48;;;;;;;;;57.67;42.33;;;;;1.84;67.12;100474.56;5073754;28;46140;-75
2023/01/31 06:17:13;;;;;;;;;55.33;44.67;;;;;1.82;67.01;100471.06;5089558;27;45823;-75
2023/01/31 06:19:39;;;;;;;;;50.33;43.00;;;;;1.79;67.09;100471.00;5073873;28;45593;-75
2023/01/31 06:22:04;;;;;;;;;43.33;39.67;;;;;1.79;67.14;100478.81;5074160;28;45407;-75
2023/01/31 06:24:30;;;;;;;;;50.00;41.00;;;;;1.79;67.44;100471.00;5074095;28;45601;-75
2023/01/31 06:26:55;;;;;;;;;52.33;42.67;;;;;1.78;67.33;100476.19;5073770;28;45455;-75
2023/01/31 06:29:21;;;;;;;;;61.33;43.00;;;;;1.76;67.42;100473.56;5054862;27;45532;-75
2023/01/31 06:31:46;;;;;;;;;58.00;46.67;;;;;1.75;67.41;100480.47;5052203;28;45497;-75
2023/01/31 06:34:12;;;;;;;;;50.00;43.33;;;;;1.77;67.46;100480.50;5061238;28;45518;-75
2023/01/31 06:36:37;;;;;;;;;50.00;39.67;;;;;1.76;67.52;100476.16;5060632;28;45416;-76
2023/01/31 06:39:03;;;;;;;;;62.00;44.00;;;;;1.75;67.46;100483.06;5061329;28;45464;-76
2023/01/31 06:41:29;;;;;;;;;58.33;41.00;;;;;1.75;67.61;100487.41;5073216;27;45403;-76
2023/01/31 06:43:55;;;;;;;;;51.67;41.33;;;;;1.75;67.50;100490.00;5073236;28;46562;-76
2023/01/31 06:46:21;;;;;;;;;60.67;43.67;;;;;1.77;67.47;100484.81;5087625;27;45334;-76
2023/01/31 06:48:47;;;;;;;;;47.67;40.67;;;;;1.77;67.57;100493.50;5053569;28;45451;-76
2023/01/31 06:51:14;;;;;;;;;56.67;46.00;;;;;1.78;67.60;100495.25;5052959;28;45365;-76
2023/01/31 06:53:39;;;;;;;;;61.00;47.00;;;;;1.81;67.56;100500.50;5056717;28;45562;-75
2023/01/31 06:56:05;;;;;;;;;55.67;42.33;;;;;1.83;67.65;100501.41;5071062;28;45477;-75
2023/01/31 06:58:32;;;;;;;;;60.00;47.33;;;;;1.84;67.48;100508.38;5072874;27;45514;-76
2023/01/31 07:01:06;;;;;;;;;49.00;40.67;;;;;1.86;67.65;100513.56;5072317;28;45373;-76
2023/01/31 07:03:31;;;;;;;;;58.67;44.33;;;;;1.88;67.46;100524.88;5058659;28;46180;-76
2023/01/31 07:05:56;;;;;;;;;65.67;43.33;;;;;1.89;67.47;100530.09;5061482;27;45439;-76
2023/01/31 07:08:22;;;;;;;;;50.33;43.00;;;;;1.91;67.52;100524.94;5072620;27;45463;-76
2023/01/31 07:10:48;;;;;;;;;53.33;44.00;;;;;1.92;67.30;100529.28;5072613;28;45510;-77
2023/01/31 07:13:14;;;;;;;;;55.67;43.33;;;;;1.94;67.46;100538.88;5082463;27;46734;-76
2023/01/31 07:15:39;;;;;;;;;61.00;44.67;;;;;1.94;67.34;100541.47;5058888;28;45533;-77
2023/01/31 07:18:05;;;;;;;;;57.67;44.33;;;;;1.94;67.35;100541.47;5072216;27;45398;-77
2023/01/31 07:20:31;;;;;;;;;59.33;47.00;;;;;1.94;67.72;100540.59;5053349;28;45396;-76
2023/01/31 07:22:57;;;;;;;;;45.33;39.67;;;;;1.96;67.59;100541.50;5069675;28;48360;-76
2023/01/31 07:25:23;;;;;;;;;59.67;44.00;;;;;1.97;67.43;100543.25;5070863;28;45499;-75
2023/01/31 07:27:49;;;;;;;;;55.67;43.67;;;;;1.97;67.47;100546.72;5065884;27;45450;-75
2023/01/31 07:30:14;;;;;;;;;60.00;47.67;;;;;2.02;67.39;100551.97;5052373;28;45570;-75
2023/01/31 07:32:40;;;;;;;;;50.00;40.00;;;;;2.04;67.55;100545.09;5070142;28;45456;-76
2023/01/31 07:35:06;;;;;;;;;55.67;43.67;;;;;2.07;67.45;100559.03;5059902;27;45574;-76
2023/01/31 07:37:31;;;;;;;;;50.33;40.67;;;;;2.09;67.33;100561.66;5058368;28;45552;-76
2023/01/31 07:39:57;;;;;;;;;60.00;42.67;;;;;2.12;67.10;100553.03;5072015;27;45500;-76
2023/01/31 07:42:23;;;;;;;;;50.33;42.00;;;;;2.13;67.35;100555.66;5070635;28;45469;-76
2023/01/31 07:44:49;;;;;;;;;63.67;48.33;;;;;2.16;67.28;100566.13;5071528;28;45429;-77
2023/01/31 07:47:14;;;;;;;;;52.00;43.00;;;;;2.21;67.36;100580.06;5070205;28;45359;-76
2023/01/31 07:49:39;;;;;;;;;58.33;46.33;;;;;2.21;66.99;100572.25;5072068;27;45787;-78
2023/01/31 07:52:05;;;;;;;;;62.33;46.67;;;;;2.22;66.98;100575.75;5054032;28;46353;-75
2023/01/31 07:54:30;;;;;;;;;56.33;47.33;;;;;2.22;67.01;100575.75;5053840;28;45411;-74
2023/01/31 07:56:56;;;;;;;;;60.25;47.50;;;;;2.20;66.83;100583.50;5072761;28;45520;-74
2023/01/31 07:59:21;;;;;;;;;68.75;53.50;;;;;2.22;66.85;100591.34;5072115;28;45367;-75
2023/01/31 08:04:33;;;;;;;;;60.00;46.33;;;;;2.23;66.92;100595.69;5058046;28;45402;-75
2023/01/31 08:07:01;;;;;;;;;59.33;46.67;;;;;2.23;66.88;100607.00;5062490;28;45554;-75
2023/01/31 08:09:27;;;;;;;;;54.50;45.25;;;;;2.22;66.85;100606.97;5071178;28;45446;-75
2023/01/31 08:11:53;;;;;;;;;48.00;41.75;;;;;2.21;66.64;100602.59;5072884;28;46432;-75
2023/01/31 08:14:24;;;;;;;;;61.67;48.33;;;;;2.21;66.65;100611.28;5072524;28;45399;-74
2023/01/31 08:16:52;;;;;;;;;65.00;45.00;;;;;2.23;66.84;100608.72;5088593;27;45404;-73
2023/01/31 08:19:18;;;;;;;;;60.67;48.00;;;;;2.25;66.72;100609.63;5059692;28;45461;-75
2023/01/31 08:21:43;;;;;;;;;64.50;51.75;;;;;2.26;66.70;100611.38;5063122;28;47194;-75
2023/01/31 08:24:09;;;;;;;;;59.00;47.00;;;;;2.29;66.98;100614.91;5052672;28;45979;-75
2023/01/31 08:26:34;;;;;;;;;64.25;53.00;;;;;2.35;66.92;100620.19;5075706;27;45391;-75
2023/01/31 08:28:59;;;;;;;;;61.25;49.50;;;;;2.40;66.80;100621.16;5076860;27;45730;-75
2023/01/31 08:31:26;;;;;;;;;58.33;44.67;;;;;2.47;66.43;100626.47;5055611;28;45518;-75
2023/01/31 08:33:54;;;;;;;;;63.50;47.75;;;;;2.55;67.20;100630.06;5056621;28;45439;-75
2023/01/31 08:36:25;;;;;;;;;58.67;44.67;;;;;2.63;66.52;100631.09;5055404;28;45471;-75
2023/01/31 08:38:51;;;;;;;;;52.75;45.00;;;;;2.70;66.44;100638.13;5069390;28;45304;-75
2023/01/31 08:41:18;;;;;;;;;61.00;47.25;;;;;2.74;66.11;100633.00;5055962;28;45464;-74
2023/01/31 08:43:44;;;;;;;;;64.25;48.50;;;;;2.78;66.01;100631.31;5069739;28;45440;-75
2023/01/31 08:46:10;;;;;;;;;66.25;50.00;;;;;2.83;65.93;100641.81;5055680;28;45361;-75
2023/01/31 08:48:37;;;;;;;;;60.00;48.00;;;;;2.84;65.97;100630.56;5053546;28;45370;-76
2023/01/31 08:51:05;;;;;;;;;66.25;49.75;;;;;2.87;65.91;100634.06;5055502;28;46351;-75
2023/01/31 08:53:30;;;;;;;;;68.00;50.75;;;;;2.88;65.78;100628.00;5068805;28;45390;-74
2023/01/31 08:56:01;;;;;;;;;62.33;48.67;;;;;2.91;65.52;100633.25;5065138;28;45354;-74
2023/01/31 08:58:27;;;;;;;;;59.75;47.25;;;;;2.93;65.35;100638.50;5075384;27;45528;-75
2023/01/31 09:00:52;;;;;;;;;63.00;47.00;;;;;2.95;65.14;100642.00;5074425;28;46926;-75
2023/01/31 09:03:18;;;;;;;;;66.00;46.67;;;;;2.95;65.09;100640.25;5075030;28;45361;-75
2023/01/31 09:05:44;;;;;;;;;64.00;49.67;;;;;2.97;65.31;100645.50;5076097;28;45407;-75
2023/01/31 09:08:09;;;;;;;;;54.33;44.00;;;;;3.00;65.00;100650.75;5055172;28;45356;-75
2023/01/31 09:10:35;;;;;;;;;69.25;54.50;;;;;3.02;64.76;100649.03;5055647;28;45524;-75
2023/01/31 09:13:01;;;;;;;;;51.67;45.67;;;;;3.03;65.04;100650.78;5055809;28;45470;-74
2023/01/31 09:15:26;;;;;;;;;65.75;51.50;;;;;3.05;65.05;100647.34;5055790;28;45621;-75
2023/01/31 09:17:52;;;;;;;;;61.00;49.50;;;;;3.10;64.91;100647.44;5068904;28;45387;-75
2023/01/31 09:20:18;;;;;;;;;64.67;46.67;;;;;3.11;64.96;100650.06;5065724;28;45352;-74
2023/01/31 09:22:43;;;;;;;;;58.00;46.00;;;;;3.13;64.93;100652.69;5062191;27;45426;-74
2023/01/31 09:25:09;;;;;;;;;61.33;49.00;;;;;3.14;64.76;100657.03;5064128;28;45501;-74
2023/01/31 09:27:37;;;;;;;;;62.33;46.33;;;;;3.19;64.94;100657.09;5058681;28;45415;-74
2023/01/31 09:30:05;;;;;;;;;56.33;43.33;;;;;3.23;64.89;100654.56;5063972;28;47399;-74
2023/01/31 09:32:31;;;;;;;;;67.00;48.00;;;;;3.27;64.56;100655.47;5054865;28;45487;-74
2023/01/31 09:34:57;;;;;;;;;62.67;49.67;;;;;3.34;64.50;100665.16;5055624;28;45420;-74
2023/01/31 09:37:22;;;;;;;;;58.00;45.33;;;;;3.40;64.77;100658.28;5071049;28;45417;-74
2023/01/31 09:39:47;;;;;;;;;56.67;45.33;;;;;3.48;64.11;100661.88;5065310;27;45621;-74
2023/01/31 09:42:27;;;;;;;;;71.00;49.00;;;;;3.55;63.97;100657.59;5055472;28;45315;-74
2023/01/31 09:45:03;;;;;;;;;58.00;46.67;;;;;3.60;64.05;100657.66;5067469;28;45428;-74
2023/01/31 09:47:43;;;;;;;;;62.67;49.67;;;;;3.66;64.10;100662.97;5061540;27;45426;-74
2023/01/31 09:50:22;;;;;;;;;62.00;49.00;;;;;3.74;63.90;100666.53;5060069;27;45399;-74
2023/01/31 09:52:49;;;;;;;;;68.25;50.00;;;;;3.78;63.92;100669.19;5064769;28;45505;-74
2023/01/31 09:55:17;;;;;;;;;67.33;49.33;;;;;3.84;63.94;100668.41;5061782;28;45536;-75
2023/01/31 09:58:09;;;;;;;;;58.00;45.67;;;;;3.91;63.70;100669.34;5075457;27;45403;-75
2023/01/31 10:00:53;;;;;;;;;65.33;49.33;;;;;3.98;63.39;100663.34;5064099;28;45419;-74
2023/01/31 10:03:39;;;;;;;;;62.00;49.00;;;;;4.03;63.64;100666.84;5075435;28;45405;-74
2023/01/31 10:06:25;;;;;;;;;61.33;49.67;;;;;4.06;63.44;100659.06;5074620;28;45322;-74
2023/01/31 10:08:53;;;;;;;;;60.33;46.67;;;;;4.08;63.02;100667.78;5090768;27;45486;-75
2023/01/31 10:11:36;;;;;;;;;62.33;48.33;;;;;4.12;63.41;100669.56;5090979;27;45455;-75
2023/01/31 10:14:13;;;;;;;;;56.67;45.67;;;;;4.19;62.78;100668.75;5073905;28;45878;-75
2023/01/31 10:16:50;;;;;;;;;63.33;45.00;;;;;4.24;62.89;100661.88;5075206;28;45680;-75
2023/01/31 10:19:25;;;;;;;;;51.00;41.67;;;;;4.28;62.85;100658.44;5075340;28;45426;-74
2023/01/31 10:21:59;;;;;;;;;58.33;42.67;;;;;4.31;62.45;100642.81;5074014;28;45543;-76
2023/01/31 10:24:50;;;;;;;;;52.67;41.00;;;;;4.35;62.20;100648.94;5069340;28;45553;-73
2023/01/31 10:27:34;;;;;;;;;46.33;40.67;;;;;4.34;61.95;100639.34;5053734;28;45393;-74
2023/01/31 10:30:03;;;;;;;;;50.67;42.33;;;;;4.34;62.11;100642.84;5054276;28;45400;-75
2023/01/31 10:32:47;;;;;;;;;60.00;44.00;;;;;4.34;62.00;100647.19;5058008;28;45641;-74
2023/01/31 10:35:33;;;;;;;;;62.33;46.00;;;;;4.35;62.49;100643.72;5061377;27;45365;-75
2023/01/31 10:38:06;;;;;;;;;53.67;44.33;;;;;4.32;62.38;100643.69;5064278;28;45420;-74
2023/01/31 10:40:41;;;;;;;;;59.00;43.33;;;;;4.29;62.13;100641.91;5074128;28;45484;-74
2023/01/31 10:43:20;;;;;;;;;59.00;44.33;;;;;4.29;61.92;100641.91;5074528;28;45388;-74
2023/01/31 10:45:46;;;;;;;;;44.33;38.67;;;;;4.30;62.11;100640.19;5074020;28;45449;-75
2023/01/31 10:48:14;;;;;;;;;46.67;39.00;;;;;4.32;61.75;100638.47;5073036;28;45436;-75
2023/01/31 10:51:01;;;;;;;;;41.67;36.67;;;;;4.35;61.64;100639.38;5074283;28;45505;-75
2023/01/31 10:53:55;;;;;;;;;58.33;46.00;;;;;4.39;61.58;100637.63;5074527;28;46173;-74
2023/01/31 10:56:23;;;;;;;;;60.33;42.67;;;;;4.45;61.65;100635.09;5073995;28;45446;-74
2023/01/31 10:58:50;;;;;;;;;57.00;41.67;;;;;4.49;61.32;100627.31;5074289;28;45384;-74
2023/01/31 11:01:17;;;;;;;;;47.00;41.00;;;;;4.54;61.40;100612.53;5073806;27;45564;-74
2023/01/31 11:03:50;;;;;;;;;53.33;41.00;;;;;4.59;61.21;100607.34;5074355;28;45970;-74
2023/01/31 11:06:16;;;;;;;;;59.33;46.33;;;;;4.65;61.24;100599.56;5067982;28;45444;-74
2023/01/31 11:08:44;;;;;;;;;57.00;46.67;;;;;4.70;61.01;100599.59;5053684;28;45441;-75
2023/01/31 11:11:19;;;;;;;;;57.67;44.67;;;;;4.76;60.84;100594.41;5069394;28;45524;-75
2023/01/31 11:14:04;;;;;;;;;57.00;44.00;;;;;4.83;60.79;100583.16;5061588;28;46466;-74
2023/01/31 11:16:36;;;;;;;;;56.33;42.67;;;;;4.90;60.62;100571.88;5073113;28;45352;-75
2023/01/31 11:19:21;;;;;;;;;53.67;42.00;;;;;4.99;60.57;100571.06;5074054;28;45498;-75
2023/01/31 11:21:50;;;;;;;;;59.67;47.67;;;;;5.06;60.56;100562.38;5089029;27;45608;-75
2023/01/31 11:24:21;;;;;;;;;51.33;44.00;;;;;5.12;60.45;100557.19;5073865;27;45446;-75
2023/01/31 11:26:52;;;;;;;;;49.33;40.00;;;;;5.17;60.20;100543.28;5072179;28;45581;-74
2023/01/31 11:29:23;;;;;;;;;59.00;43.00;;;;;5.22;60.03;100536.31;5055462;27;45447;-76
2023/01/31 11:31:49;;;;;;;;;50.33;43.33;;;;;5.28;59.88;100537.22;5051895;28;45541;-75
2023/01/31 11:34:29;;;;;;;;;55.33;40.67;;;;;5.32;59.80;100533.75;5071057;28;47621;-75
2023/01/31 11:37:13;;;;;;;;;54.67;42.33;;;;;5.39;59.98;100519.81;5058946;28;45455;-74